createdAt,value
2023-02-18T00:01:02.904Z,10.91
2023-02-18T00:03:30.768Z,10.94
2023-02-18T00:05:58.430Z,10.95
2023-02-18T00:08:26.116Z,10.97
2023-02-18T00:10:54.211Z,11.02
2023-02-18T00:13:22.183Z,11.08
2023-02-18T00:15:49.850Z,11.14
2023-02-18T00:18:17.535Z,11.17
2023-02-18T00:20:45.187Z,11.21
2023-02-18T00:23:12.847Z,11.23
2023-02-18T00:25:40.880Z,11.21
2023-02-18T00:28:09.781Z,11.17
2023-02-18T00:30:37.475Z,11.14
2023-02-18T00:33:05.165Z,11.14
2023-02-18T00:35:32.940Z,11.13
2023-02-18T00:38:00.934Z,11.15
2023-02-18T00:40:28.712Z,11.16
2023-02-18T00:42:56.394Z,11.18
2023-02-18T00:45:24.003Z,11.17
2023-02-18T00:47:51.635Z,11.16
2023-02-18T00:50:19.994Z,11.13
2023-02-18T00:52:47.793Z,11.10
2023-02-18T00:55:15.430Z,11.06
2023-02-18T00:57:43.003Z,11.08
2023-02-18T01:00:10.598Z,11.09
2023-02-18T01:02:39.048Z,11.09
2023-02-18T01:05:06.653Z,11.10
2023-02-18T01:07:34.256Z,11.09
2023-02-18T01:10:01.908Z,11.07
2023-02-18T01:12:29.816Z,11.03
2023-02-18T01:14:57.794Z,10.98
2023-02-18T01:17:25.623Z,10.95
2023-02-18T01:19:53.195Z,10.93
2023-02-18T01:22:20.808Z,10.91
2023-02-18T01:24:48.451Z,10.89
2023-02-18T01:27:16.235Z,10.88
2023-02-18T01:29:43.823Z,10.85
2023-02-18T01:32:11.597Z,10.85
2023-02-18T01:34:39.232Z,10.84
2023-02-18T01:37:06.767Z,10.83
2023-02-18T01:39:34.738Z,10.82
2023-02-18T01:42:02.307Z,10.81
2023-02-18T01:44:29.935Z,10.82
2023-02-18T01:46:57.641Z,10.81
2023-02-18T01:49:25.240Z,10.80
2023-02-18T01:51:53.245Z,10.79
2023-02-18T01:54:20.859Z,10.79
2023-02-18T01:56:48.530Z,10.77
2023-02-18T01:59:16.156Z,10.77
2023-02-18T02:01:43.844Z,10.77
2023-02-18T02:04:11.870Z,10.76
2023-02-18T02:06:39.651Z,10.77
2023-02-18T02:09:07.304Z,10.77
2023-02-18T02:11:34.867Z,10.76
2023-02-18T02:14:02.431Z,10.75
2023-02-18T02:16:30.541Z,10.75
2023-02-18T02:18:58.363Z,10.76
2023-02-18T02:21:25.931Z,10.76
2023-02-18T02:23:53.523Z,10.75
2023-02-18T02:26:21.058Z,10.75
2023-02-18T02:28:48.619Z,10.74
2023-02-18T02:31:16.519Z,10.73
2023-02-18T02:33:44.196Z,10.72
2023-02-18T02:36:11.794Z,10.73
2023-02-18T02:38:39.805Z,10.71
2023-02-18T02:41:07.808Z,10.72
2023-02-18T02:43:35.397Z,10.70
2023-02-18T02:46:03.111Z,10.70
2023-02-18T02:48:31.181Z,10.70
2023-02-18T02:50:58.778Z,10.71
2023-02-18T02:53:26.408Z,10.70
2023-02-18T02:55:55.168Z,10.70
2023-02-18T02:58:22.863Z,10.72
2023-02-18T03:00:51.179Z,10.76
2023-02-18T03:03:18.893Z,10.78
2023-02-18T03:05:46.948Z,10.82
2023-02-18T03:08:14.612Z,10.87
2023-02-18T03:10:42.202Z,10.90
2023-02-18T03:13:09.777Z,10.93
2023-02-18T03:15:37.395Z,10.95
2023-02-18T03:18:05.365Z,10.98
2023-02-18T03:20:32.940Z,11.00
2023-02-18T03:23:00.964Z,11.01
2023-02-18T03:25:28.520Z,11.02
2023-02-18T03:27:56.096Z,11.04
2023-02-18T03:30:24.125Z,11.04
2023-02-18T03:32:51.720Z,11.05
2023-02-18T03:35:19.985Z,11.06
2023-02-18T03:37:47.601Z,11.07
2023-02-18T03:40:15.205Z,11.06
2023-02-18T03:42:43.156Z,11.07
2023-02-18T03:45:12.563Z,11.07
2023-02-18T03:47:40.156Z,11.03
2023-02-18T03:50:07.743Z,10.97
2023-02-18T03:52:36.761Z,10.89
2023-02-18T03:55:04.731Z,10.84
2023-02-18T03:57:32.491Z,10.80
2023-02-18T04:00:00.142Z,10.77
2023-02-18T04:02:27.760Z,10.76
2023-02-18T04:04:55.358Z,10.76
2023-02-18T04:07:23.754Z,10.74
2023-02-18T04:09:51.502Z,10.74
2023-02-18T04:12:19.065Z,10.74
2023-02-18T04:14:46.783Z,10.75
2023-02-18T04:17:14.323Z,10.76
2023-02-18T04:19:42.282Z,10.78
2023-02-18T04:22:09.917Z,10.78
2023-02-18T04:24:37.514Z,10.79
2023-02-18T04:27:05.084Z,10.80
2023-02-18T04:29:33.371Z,10.84
2023-02-18T04:32:01.398Z,10.86
2023-02-18T04:34:29.023Z,10.90
2023-02-18T04:36:57.625Z,10.92
2023-02-18T04:39:25.179Z,10.93
2023-02-18T04:41:52.764Z,10.93
2023-02-18T04:44:20.859Z,10.89
2023-02-18T04:46:48.611Z,10.85
2023-02-18T04:49:16.212Z,10.84
2023-02-18T04:51:44.254Z,10.82
2023-02-18T04:54:11.859Z,10.81
2023-02-18T04:56:39.857Z,10.81
2023-02-18T04:59:07.514Z,10.85
2023-02-18T05:01:35.171Z,10.90
2023-02-18T05:04:02.802Z,10.97
2023-02-18T05:06:30.437Z,11.01
2023-02-18T05:08:58.428Z,11.04
2023-02-18T05:11:26.015Z,11.03
2023-02-18T05:13:53.995Z,10.98
2023-02-18T05:16:21.589Z,10.91
2023-02-18T05:18:49.161Z,10.84
2023-02-18T05:21:17.146Z,10.80
2023-02-18T05:23:44.986Z,10.76
2023-02-18T05:26:12.532Z,10.74
2023-02-18T05:28:40.142Z,10.72
2023-02-18T05:31:07.811Z,10.71
2023-02-18T05:33:35.819Z,10.69
2023-02-18T05:36:03.634Z,10.66
2023-02-18T05:38:31.201Z,10.65
2023-02-18T05:40:58.773Z,10.64
2023-02-18T05:43:26.369Z,10.64
2023-02-18T05:45:53.961Z,10.62
2023-02-18T05:48:21.740Z,10.61
2023-02-18T05:50:49.358Z,10.61
2023-02-18T05:53:17.733Z,10.59
2023-02-18T05:55:45.321Z,10.59
2023-02-18T05:58:14.201Z,10.58
2023-02-18T06:00:41.842Z,10.57
2023-02-18T06:03:09.411Z,10.56
2023-02-18T06:05:37.021Z,10.56
2023-02-18T06:08:04.660Z,10.55
2023-02-18T06:10:32.245Z,10.54
2023-02-18T06:13:01.269Z,10.54
2023-02-18T06:15:28.882Z,10.54
2023-02-18T06:17:56.477Z,10.53
2023-02-18T06:20:24.424Z,10.53
2023-02-18T06:22:52.386Z,10.52
2023-02-18T06:25:19.987Z,10.53
2023-02-18T06:27:47.617Z,10.53
2023-02-18T06:30:15.243Z,10.52
2023-02-18T06:32:42.873Z,10.51
2023-02-18T06:35:10.907Z,10.51
2023-02-18T06:37:38.698Z,10.51
2023-02-18T06:40:06.315Z,10.50
2023-02-18T06:42:34.300Z,10.50
2023-02-18T06:45:01.915Z,10.49
2023-02-18T06:47:29.918Z,10.49
2023-02-18T06:49:57.734Z,10.48
2023-02-18T06:52:25.379Z,10.46
2023-02-18T06:54:53.017Z,10.46
2023-02-18T06:57:20.672Z,10.46
2023-02-18T06:59:48.617Z,10.44
2023-02-18T07:02:16.255Z,10.45
2023-02-18T07:04:45.684Z,10.44
2023-02-18T07:07:13.285Z,10.45
2023-02-18T07:09:42.348Z,10.44
2023-02-18T07:12:10.400Z,10.44
2023-02-18T07:14:38.187Z,10.45
2023-02-18T07:17:05.781Z,10.45
2023-02-18T07:19:33.533Z,10.46
2023-02-18T07:22:01.658Z,10.45
2023-02-18T07:24:29.636Z,10.44
2023-02-18T07:26:58.891Z,10.44
2023-02-18T07:29:26.458Z,10.44
2023-02-18T07:31:54.317Z,10.43
2023-02-18T07:34:22.048Z,10.43
2023-02-18T07:36:49.665Z,10.43
2023-02-18T07:39:20.786Z,10.43
2023-02-18T07:41:48.597Z,10.42
2023-02-18T07:44:16.201Z,10.41
2023-02-18T07:46:43.860Z,10.41
2023-02-18T07:49:12.114Z,10.40
2023-02-18T07:51:40.471Z,10.40
2023-02-18T07:54:08.067Z,10.38
2023-02-18T07:56:35.822Z,10.39
2023-02-18T07:59:03.410Z,10.37
2023-02-18T08:01:31.418Z,10.36
2023-02-18T08:04:00.988Z,10.36
2023-02-18T08:06:28.709Z,10.34
2023-02-18T08:08:56.581Z,10.32
2023-02-18T08:11:24.781Z,10.31
2023-02-18T08:13:52.843Z,10.30
2023-02-18T08:16:20.664Z,10.27
2023-02-18T08:18:49.845Z,10.26
2023-02-18T08:21:18.049Z,10.26
2023-02-18T08:23:46.515Z,10.26
2023-02-18T08:26:15.149Z,10.25
2023-02-18T08:28:42.780Z,10.27
2023-02-18T08:31:10.963Z,10.28
2023-02-18T08:33:38.844Z,10.28
2023-02-18T08:36:06.947Z,10.28
2023-02-18T08:38:35.467Z,10.30
2023-02-18T08:41:03.481Z,10.30
2023-02-18T08:43:31.114Z,10.29
2023-02-18T08:45:58.855Z,10.28
2023-02-18T08:48:26.633Z,10.26
2023-02-18T08:50:54.757Z,10.24
2023-02-18T08:53:22.593Z,10.22
2023-02-18T08:55:50.407Z,10.21
2023-02-18T08:58:18.625Z,10.20
2023-02-18T09:00:46.466Z,10.21
2023-02-18T09:03:14.838Z,10.20
2023-02-18T09:05:42.831Z,10.18
2023-02-18T09:08:10.529Z,10.14
2023-02-18T09:10:39.838Z,10.10
2023-02-18T09:13:07.646Z,10.09
2023-02-18T09:15:36.380Z,10.07
2023-02-18T09:18:04.714Z,10.06
2023-02-18T09:20:32.528Z,10.07
2023-02-18T09:23:01.031Z,10.15
2023-02-18T09:25:28.946Z,10.29
2023-02-18T09:27:57.033Z,10.41
2023-02-18T09:30:24.931Z,10.50
2023-02-18T09:32:52.739Z,10.53
2023-02-18T09:35:20.690Z,10.56
2023-02-18T09:37:48.763Z,10.57
2023-02-18T09:40:16.982Z,10.58
2023-02-18T09:42:45.331Z,10.58
2023-02-18T09:45:13.114Z,10.56
2023-02-18T09:47:41.103Z,10.55
2023-02-18T09:50:08.931Z,10.52
2023-02-18T09:52:38.450Z,10.48
2023-02-18T09:55:06.581Z,10.45
2023-02-18T09:57:34.369Z,10.43
2023-02-18T10:00:02.554Z,10.41
2023-02-18T10:02:30.656Z,10.40
2023-02-18T10:04:58.412Z,10.39
2023-02-18T10:07:28.464Z,10.40
2023-02-18T10:09:56.604Z,10.40
2023-02-18T10:12:24.506Z,10.32
2023-02-18T10:14:52.265Z,10.14
2023-02-18T10:17:20.297Z,10.02
2023-02-18T10:19:48.525Z,9.95
2023-02-18T10:22:16.826Z,9.89
2023-02-18T10:24:44.754Z,9.83
2023-02-18T10:27:12.503Z,9.79
2023-02-18T10:29:40.707Z,9.77
2023-02-18T10:32:08.914Z,9.75
2023-02-18T10:34:36.883Z,9.74
2023-02-18T10:37:04.686Z,9.73
2023-02-18T10:39:33.223Z,9.71
2023-02-18T10:42:01.589Z,9.72
2023-02-18T10:44:31.038Z,9.71
2023-02-18T10:46:58.981Z,9.67
2023-02-18T10:49:27.001Z,9.66
2023-02-18T10:51:54.801Z,9.64
2023-02-18T10:54:23.073Z,9.64
2023-02-18T10:56:50.803Z,9.65
2023-02-18T10:59:18.517Z,9.67
2023-02-18T11:01:46.564Z,9.68
2023-02-18T11:04:14.490Z,9.70
2023-02-18T11:06:42.795Z,9.71
2023-02-18T11:09:11.162Z,9.70
2023-02-18T11:11:39.088Z,9.68
2023-02-18T11:14:07.002Z,9.66
2023-02-18T11:16:35.036Z,9.67
2023-02-18T11:19:04.688Z,9.68
2023-02-18T11:21:33.620Z,9.66
2023-02-18T11:24:01.499Z,9.68
2023-02-18T11:26:29.279Z,9.72
2023-02-18T11:28:57.850Z,9.77
2023-02-18T11:31:26.399Z,9.78
2023-02-18T11:33:54.314Z,9.75
2023-02-18T11:36:22.282Z,9.75
2023-02-18T11:38:50.233Z,9.74
2023-02-18T11:41:18.049Z,9.73
2023-02-18T11:43:46.273Z,9.73
2023-02-18T11:46:14.302Z,9.77
2023-02-18T11:48:42.086Z,9.79
2023-02-18T11:51:10.762Z,9.78
2023-02-18T11:53:38.891Z,9.78
2023-02-18T11:56:06.684Z,9.81
2023-02-18T11:58:35.106Z,9.81
2023-02-18T12:01:03.159Z,9.79
2023-02-18T12:03:31.098Z,9.77
2023-02-18T12:05:59.601Z,9.77
2023-02-18T12:08:27.361Z,9.77
2023-02-18T12:10:55.689Z,9.76
2023-02-18T12:13:24.090Z,9.77
2023-02-18T12:15:52.140Z,9.80
2023-02-18T12:18:20.099Z,9.83
2023-02-18T12:20:48.217Z,9.86
2023-02-18T12:23:16.668Z,9.86
2023-02-18T12:25:44.527Z,9.88
2023-02-18T12:28:12.442Z,9.91
2023-02-18T12:30:40.516Z,9.93
2023-02-18T12:33:08.996Z,9.93
2023-02-18T12:35:37.105Z,9.93
2023-02-18T12:38:05.088Z,9.92
2023-02-18T12:40:32.895Z,9.93
2023-02-18T12:43:00.694Z,9.94
2023-02-18T12:45:29.049Z,9.94
2023-02-18T12:47:57.050Z,9.96
2023-02-18T12:50:24.809Z,9.95
2023-02-18T12:52:52.662Z,9.95
2023-02-18T12:55:20.374Z,9.96
2023-02-18T12:57:48.916Z,9.99
2023-02-18T13:00:17.277Z,9.99
2023-02-18T13:02:45.213Z,10.00
2023-02-18T13:05:12.930Z,10.00
2023-02-18T13:07:41.006Z,10.02
2023-02-18T13:10:10.776Z,10.03
2023-02-18T13:12:40.454Z,10.05
2023-02-18T13:15:08.590Z,10.06
2023-02-18T13:17:36.316Z,10.08
2023-02-18T13:20:04.702Z,10.08
2023-02-18T13:22:33.092Z,10.07
2023-02-18T13:25:01.567Z,10.08
2023-02-18T13:27:29.373Z,10.10
2023-02-18T13:29:57.443Z,10.10
2023-02-18T13:32:25.320Z,10.10
2023-02-18T13:34:53.627Z,10.09
2023-02-18T13:37:21.826Z,10.08
2023-02-18T13:39:49.690Z,10.08
2023-02-18T13:42:18.065Z,10.09
2023-02-18T13:44:46.258Z,10.12
2023-02-18T13:47:14.435Z,10.13
2023-02-18T13:49:43.029Z,10.14
2023-02-18T13:52:11.044Z,10.18
2023-02-18T13:54:38.777Z,10.21
2023-02-18T13:57:06.553Z,10.19
2023-02-18T13:59:35.022Z,10.18
2023-02-18T14:02:03.273Z,10.19
2023-02-18T14:04:31.104Z,10.22
2023-02-18T14:06:59.008Z,10.23
2023-02-18T14:09:27.967Z,10.22
2023-02-18T14:11:56.473Z,10.23
2023-02-18T14:14:24.751Z,10.25
2023-02-18T14:16:52.545Z,10.21
2023-02-18T14:19:20.424Z,10.21
2023-02-18T14:21:48.379Z,10.23
2023-02-18T14:24:16.661Z,10.23
2023-02-18T14:26:46.646Z,10.23
2023-02-18T14:29:14.733Z,10.23
2023-02-18T14:31:42.940Z,10.22
2023-02-18T14:34:10.934Z,10.22
2023-02-18T14:36:39.505Z,10.24
2023-02-18T14:39:07.908Z,10.23
2023-02-18T14:41:35.704Z,10.24
2023-02-18T14:44:03.813Z,10.24
2023-02-18T14:46:31.602Z,10.23
2023-02-18T14:49:00.250Z,10.23
2023-02-18T14:51:28.312Z,10.22
2023-02-18T14:53:56.092Z,10.21
2023-02-18T14:56:23.932Z,10.21
2023-02-18T14:58:51.764Z,10.21
2023-02-18T15:01:19.620Z,10.22
2023-02-18T15:03:47.707Z,10.23
2023-02-18T15:06:15.602Z,10.24
2023-02-18T15:08:43.498Z,10.24
2023-02-18T15:11:11.756Z,10.26
2023-02-18T15:13:40.766Z,10.27
2023-02-18T15:16:08.938Z,10.29
2023-02-18T15:18:37.110Z,10.29
2023-02-18T15:21:05.119Z,10.30
2023-02-18T15:23:32.800Z,10.30
2023-02-18T15:26:00.985Z,10.30
2023-02-18T15:28:29.473Z,10.31
2023-02-18T15:30:57.216Z,10.33
2023-02-18T15:33:25.224Z,10.35
2023-02-18T15:35:53.194Z,10.36
2023-02-18T15:38:21.515Z,10.37
2023-02-18T15:40:49.564Z,10.37
2023-02-18T15:43:17.563Z,10.38
2023-02-18T15:45:45.461Z,10.38
2023-02-18T15:48:13.331Z,10.37
2023-02-18T15:50:41.631Z,10.39
2023-02-18T15:53:11.157Z,10.39
2023-02-18T15:55:39.024Z,10.39
2023-02-18T15:58:07.188Z,10.39
2023-02-18T16:00:35.079Z,10.39
2023-02-18T16:03:03.322Z,10.40
2023-02-18T16:05:32.416Z,10.39
2023-02-18T16:08:00.282Z,10.38
2023-02-18T16:10:33.449Z,10.37
2023-02-18T16:13:01.794Z,10.37
2023-02-18T16:15:30.312Z,10.38
2023-02-18T16:17:59.444Z,10.37
2023-02-18T16:20:27.515Z,10.36
2023-02-18T16:22:55.289Z,10.36
2023-02-18T16:25:23.225Z,10.35
2023-02-18T16:27:51.423Z,10.36
2023-02-18T16:30:19.508Z,10.35
2023-02-18T16:32:47.593Z,10.36
2023-02-18T16:35:15.390Z,10.34
2023-02-18T16:37:43.658Z,10.35
2023-02-18T16:40:12.231Z,10.36
2023-02-18T16:42:40.148Z,10.34
2023-02-18T16:45:07.832Z,10.37
2023-02-18T16:47:35.887Z,10.38
2023-02-18T16:50:03.797Z,10.39
2023-02-18T16:52:32.324Z,10.41
2023-02-18T16:55:00.345Z,10.44
2023-02-18T16:57:28.182Z,10.49
2023-02-18T16:59:56.546Z,10.52
2023-02-18T17:02:24.561Z,10.56
2023-02-18T17:04:57.917Z,10.59
2023-02-18T17:07:26.005Z,10.62
2023-02-18T17:09:53.898Z,10.64
2023-02-18T17:12:21.648Z,10.64
2023-02-18T17:14:49.578Z,10.66
2023-02-18T17:17:18.602Z,10.67
2023-02-18T17:19:46.699Z,10.67
2023-02-18T17:22:15.140Z,10.69
2023-02-18T17:24:42.880Z,10.69
2023-02-18T17:27:10.970Z,10.69
2023-02-18T17:29:39.371Z,10.69
2023-02-18T17:32:07.261Z,10.70
2023-02-18T17:34:36.518Z,10.69
2023-02-18T17:37:04.558Z,10.69
2023-02-18T17:39:32.582Z,10.70
2023-02-18T17:42:00.793Z,10.71
2023-02-18T17:44:30.659Z,10.70
2023-02-18T17:46:58.643Z,10.70
2023-02-18T17:49:26.547Z,10.69
2023-02-18T17:51:55.849Z,10.69
2023-02-18T17:54:26.636Z,10.70
2023-02-18T17:56:56.775Z,10.71
2023-02-18T17:59:24.710Z,10.72
2023-02-18T18:01:52.679Z,10.73
2023-02-18T18:04:20.739Z,10.74
2023-02-18T18:06:50.700Z,10.73
2023-02-18T18:09:18.942Z,10.73
2023-02-18T18:11:47.082Z,10.74
2023-02-18T18:14:15.000Z,10.74
2023-02-18T18:16:43.004Z,10.73
2023-02-18T18:19:11.690Z,10.72
2023-02-18T18:21:39.914Z,10.73
2023-02-18T18:24:07.747Z,10.73
2023-02-18T18:26:35.930Z,10.73
2023-02-18T18:29:04.160Z,10.71
2023-02-18T18:31:33.089Z,10.65
2023-02-18T18:34:01.363Z,10.58
2023-02-18T18:36:29.193Z,10.52
2023-02-18T18:38:57.159Z,10.46
2023-02-18T18:41:25.381Z,10.44
2023-02-18T18:43:53.256Z,10.43
2023-02-18T18:46:21.508Z,10.42
2023-02-18T18:48:49.660Z,10.40
2023-02-18T18:51:18.050Z,10.39
2023-02-18T18:53:46.115Z,10.38
2023-02-18T18:56:14.723Z,10.37
2023-02-18T18:58:42.710Z,10.36
2023-02-18T19:01:10.955Z,10.34
2023-02-18T19:03:39.170Z,10.33
2023-02-18T19:06:07.096Z,10.33
2023-02-18T19:08:35.085Z,10.33
2023-02-18T19:11:03.102Z,10.33
2023-02-18T19:13:31.311Z,10.33
2023-02-18T19:15:59.171Z,10.33
2023-02-18T19:18:28.240Z,10.33
2023-02-18T19:20:57.273Z,10.32
2023-02-18T19:23:25.213Z,10.33
2023-02-18T19:25:53.265Z,10.32
2023-02-18T19:28:21.160Z,10.33
2023-02-18T19:30:49.038Z,10.33
2023-02-18T19:33:17.497Z,10.32
2023-02-18T19:35:45.945Z,10.34
2023-02-18T19:38:13.976Z,10.34
2023-02-18T19:40:42.019Z,10.35
2023-02-18T19:43:09.991Z,10.35
2023-02-18T19:45:38.394Z,10.36
2023-02-18T19:48:06.736Z,10.37
2023-02-18T19:50:35.385Z,10.38
2023-02-18T19:53:03.389Z,10.39
2023-02-18T19:55:31.418Z,10.39
2023-02-18T19:58:00.430Z,10.40
2023-02-18T20:00:28.314Z,10.39
2023-02-18T20:02:56.383Z,10.41
2023-02-18T20:05:24.389Z,10.41
2023-02-18T20:07:52.358Z,10.42
2023-02-18T20:10:21.670Z,10.42
2023-02-18T20:12:51.124Z,10.44
2023-02-18T20:15:19.153Z,10.43
2023-02-18T20:17:47.112Z,10.44
2023-02-18T20:20:15.406Z,10.46
2023-02-18T20:22:43.946Z,10.48
2023-02-18T20:25:11.840Z,10.47
2023-02-18T20:27:47.923Z,10.50
2023-02-18T20:30:16.134Z,10.49
2023-02-18T20:32:44.335Z,10.50
2023-02-18T20:35:12.356Z,10.50
2023-02-18T20:37:40.265Z,10.49
2023-02-18T20:40:08.279Z,10.49
2023-02-18T20:42:36.297Z,10.50
2023-02-18T20:45:04.672Z,10.46
2023-02-18T20:47:32.698Z,10.44
2023-02-18T20:50:00.594Z,10.42
2023-02-18T20:52:28.738Z,10.42
2023-02-18T20:54:56.691Z,10.40
2023-02-18T20:57:24.704Z,10.40
2023-02-18T20:59:52.945Z,10.39
2023-02-18T21:02:20.834Z,10.40
2023-02-18T21:04:48.732Z,10.41
2023-02-18T21:07:16.770Z,10.41
2023-02-18T21:09:45.293Z,10.41
2023-02-18T21:12:13.568Z,10.41
2023-02-18T21:14:41.543Z,10.43
2023-02-18T21:17:09.734Z,10.45
2023-02-18T21:19:37.690Z,10.49
2023-02-18T21:22:06.163Z,10.53
2023-02-18T21:24:34.205Z,10.54
2023-02-18T21:27:02.112Z,10.57
2023-02-18T21:29:30.279Z,10.59
2023-02-18T21:31:58.326Z,10.60
2023-02-18T21:34:26.666Z,10.58
2023-02-18T21:36:54.835Z,10.52
2023-02-18T21:39:22.766Z,10.46
2023-02-18T21:41:50.727Z,10.43
2023-02-18T21:44:21.529Z,10.40
2023-02-18T21:46:51.506Z,10.39
2023-02-18T21:49:19.722Z,10.39
2023-02-18T21:52:02.317Z,10.39
2023-02-18T21:54:30.362Z,10.38
2023-02-18T21:56:58.136Z,10.39
2023-02-18T21:59:27.105Z,10.39
2023-02-18T22:01:55.128Z,10.38
2023-02-18T22:04:22.945Z,10.37
2023-02-18T22:06:50.971Z,10.37
2023-02-18T22:09:19.593Z,10.36
2023-02-18T22:11:47.479Z,10.35
2023-02-18T22:14:15.553Z,10.36
2023-02-18T22:16:43.631Z,10.35
2023-02-18T22:19:11.654Z,10.34
2023-02-18T22:21:39.976Z,10.34
2023-02-18T22:24:08.057Z,10.33
2023-02-18T22:26:36.223Z,10.31
2023-02-18T22:29:04.144Z,10.30
2023-02-18T22:31:32.179Z,10.29
2023-02-18T22:34:00.374Z,10.29
2023-02-18T22:36:28.352Z,10.27
2023-02-18T22:38:56.148Z,10.28
2023-02-18T22:41:24.030Z,10.27
2023-02-18T22:43:51.842Z,10.27
2023-02-18T22:46:20.001Z,10.26
2023-02-18T22:48:48.845Z,10.25
2023-02-18T22:51:16.767Z,10.26
2023-02-18T22:53:44.705Z,10.25
2023-02-18T22:56:13.167Z,10.25
2023-02-18T22:58:41.350Z,10.25
2023-02-18T23:01:09.862Z,10.26
2023-02-18T23:03:38.020Z,10.26
2023-02-18T23:06:05.864Z,10.26
2023-02-18T23:08:33.601Z,10.27
2023-02-18T23:11:02.114Z,10.27
2023-02-18T23:13:29.910Z,10.27
2023-02-18T23:15:57.714Z,10.26
2023-02-18T23:18:25.480Z,10.28
2023-02-18T23:21:11.221Z,10.28
2023-02-18T23:23:39.703Z,10.28
2023-02-18T23:26:07.551Z,10.29
2023-02-18T23:28:47.911Z,10.29
2023-02-18T23:31:16.505Z,10.30
2023-02-18T23:33:44.400Z,10.30
2023-02-18T23:36:12.230Z,10.31
2023-02-18T23:38:40.028Z,10.33
2023-02-18T23:41:07.789Z,10.34
2023-02-18T23:43:36.124Z,10.34
2023-02-18T23:46:04.057Z,10.34
2023-02-18T23:48:31.842Z,10.32
2023-02-18T23:50:59.736Z,10.31
2023-02-18T23:53:28.032Z,10.30
2023-02-18T23:55:56.028Z,10.29
2023-02-18T23:58:23.919Z,10.28
